createdAt,value
2019-03-13T00:00:03.902Z,10.60
2019-03-13T00:00:35.103Z,9.78
2019-03-13T00:01:06.302Z,9.75
2019-03-13T00:01:37.498Z,10.72
2019-03-13T00:02:08.701Z,10.13
2019-03-13T00:02:39.932Z,9.68
2019-03-13T00:03:11.131Z,10.60
2019-03-13T00:03:42.329Z,9.98
2019-03-13T00:04:13.530Z,9.58
2019-03-13T00:04:44.732Z,10.90
2019-03-13T00:05:15.939Z,9.83
2019-03-13T00:05:47.142Z,9.58
2019-03-13T00:06:18.357Z,10.30
2019-03-13T00:06:49.611Z,10.60
2019-03-13T00:07:20.831Z,10.95
2019-03-13T00:07:52.032Z,9.43
2019-03-13T00:08:23.278Z,9.63
2019-03-13T00:08:54.481Z,9.28
2019-03-13T00:09:25.705Z,10.30
2019-03-13T00:09:56.896Z,9.93
2019-03-13T00:10:28.113Z,9.40
2019-03-13T00:10:59.302Z,9.43
2019-03-13T00:11:30.534Z,9.50
2019-03-13T00:12:01.767Z,9.35
2019-03-13T00:12:32.958Z,9.23
2019-03-13T00:13:04.156Z,9.83
2019-03-13T00:13:35.358Z,9.50
2019-03-13T00:14:06.598Z,9.93
2019-03-13T00:14:37.814Z,9.38
2019-03-13T00:15:09.016Z,10.32
2019-03-13T00:15:40.215Z,10.93
2019-03-13T00:16:11.463Z,9.85
2019-03-13T00:16:42.666Z,9.78
2019-03-13T00:17:13.868Z,8.95
2019-03-13T00:17:45.062Z,9.05
2019-03-13T00:18:16.266Z,9.25
2019-03-13T00:18:47.496Z,9.25
2019-03-13T00:19:18.703Z,9.33
2019-03-13T00:19:49.924Z,9.08
2019-03-13T00:20:21.181Z,8.63
2019-03-13T00:20:52.392Z,8.78
2019-03-13T00:21:23.605Z,8.93
2019-03-13T00:21:54.806Z,9.00
2019-03-13T00:22:26.018Z,9.15
2019-03-13T00:22:57.253Z,8.40
2019-03-13T00:23:28.445Z,8.43
2019-03-13T00:23:59.712Z,8.53
2019-03-13T00:24:30.917Z,8.88
2019-03-13T00:25:02.141Z,8.43
2019-03-13T00:25:33.334Z,9.05
2019-03-13T00:26:04.529Z,9.40
2019-03-13T00:26:35.727Z,8.55
2019-03-13T00:27:06.935Z,8.78
2019-03-13T00:27:38.159Z,8.23
2019-03-13T00:28:09.322Z,8.00
2019-03-13T00:28:40.514Z,8.60
2019-03-13T00:29:11.750Z,8.68
2019-03-13T00:29:42.954Z,8.83
2019-03-13T00:30:14.167Z,8.33
2019-03-13T00:30:45.374Z,8.55
2019-03-13T00:31:16.619Z,8.83
2019-03-13T00:31:47.826Z,8.50
2019-03-13T00:32:19.050Z,10.45
2019-03-13T00:32:50.257Z,8.80
2019-03-13T00:33:21.458Z,9.60
2019-03-13T00:33:52.679Z,8.75
2019-03-13T00:34:23.862Z,9.15
2019-03-13T00:34:55.056Z,8.83
2019-03-13T00:35:26.257Z,9.13
2019-03-13T00:35:57.501Z,8.85
2019-03-13T00:36:28.771Z,8.58
2019-03-13T00:36:59.927Z,8.63
2019-03-13T00:37:31.129Z,8.30
2019-03-13T00:38:02.334Z,8.23
2019-03-13T00:38:33.529Z,9.70
2019-03-13T00:39:04.768Z,7.83
2019-03-13T00:39:35.974Z,8.85
2019-03-13T00:40:07.165Z,8.35
2019-03-13T00:40:38.401Z,8.45
2019-03-13T00:41:09.613Z,8.55
2019-03-13T00:41:40.855Z,8.13
2019-03-13T00:42:12.051Z,8.85
2019-03-13T00:42:43.240Z,8.43
2019-03-13T00:43:14.437Z,8.50
2019-03-13T00:43:45.635Z,9.35
2019-03-13T00:44:16.859Z,10.25
2019-03-13T00:44:48.074Z,8.88
2019-03-13T00:45:19.441Z,9.00
2019-03-13T00:45:50.649Z,8.78
2019-03-13T00:46:21.868Z,9.13
2019-03-13T00:46:53.090Z,8.75
2019-03-13T00:47:24.292Z,8.80
2019-03-13T00:47:55.500Z,9.05
2019-03-13T00:48:26.693Z,8.53
2019-03-13T00:48:57.887Z,8.60
2019-03-13T00:49:29.100Z,8.78
2019-03-13T00:50:00.401Z,9.30
2019-03-13T00:50:31.629Z,8.85
2019-03-13T00:51:02.820Z,9.70
2019-03-13T00:51:36.822Z,9.03
2019-03-13T00:52:06.955Z,8.68
2019-03-13T00:52:38.206Z,8.85
2019-03-13T00:53:09.463Z,8.45
2019-03-13T00:53:40.663Z,8.53
2019-03-13T00:54:11.873Z,8.78
2019-03-13T00:54:43.079Z,8.88
2019-03-13T00:55:14.294Z,8.58
2019-03-13T00:55:45.567Z,9.28
2019-03-13T00:56:16.759Z,8.48
2019-03-13T00:56:47.969Z,8.93
2019-03-13T00:57:19.183Z,9.05
2019-03-13T00:57:50.369Z,8.68
2019-03-13T00:58:21.597Z,9.20
2019-03-13T00:58:52.801Z,9.13
2019-03-13T00:59:24.003Z,8.68
2019-03-13T00:59:55.210Z,9.13
2019-03-13T01:00:26.396Z,8.78
2019-03-13T01:00:57.635Z,8.53
2019-03-13T01:01:28.848Z,8.58
2019-03-13T01:02:00.050Z,8.60
2019-03-13T01:02:31.260Z,8.53
2019-03-13T01:03:02.476Z,8.00
2019-03-13T01:03:33.670Z,9.20
2019-03-13T01:04:04.958Z,8.85
2019-03-13T01:04:36.213Z,9.20
2019-03-13T01:05:07.399Z,8.30
2019-03-13T01:05:38.597Z,8.68
2019-03-13T01:06:09.781Z,8.23
2019-03-13T01:06:41.013Z,9.00
2019-03-13T01:07:12.214Z,8.73
2019-03-13T01:07:43.430Z,8.58
2019-03-13T01:08:14.614Z,8.80
2019-03-13T01:08:45.816Z,9.25
2019-03-13T01:09:17.031Z,8.75
2019-03-13T01:09:48.266Z,10.32
2019-03-13T01:10:19.462Z,9.15
2019-03-13T01:10:50.672Z,9.10
2019-03-13T01:11:21.868Z,9.48
2019-03-13T01:11:53.073Z,9.28
2019-03-13T01:12:24.272Z,8.88
2019-03-13T01:12:55.465Z,9.65
2019-03-13T01:13:26.653Z,10.00
2019-03-13T01:13:57.848Z,9.58
2019-03-13T01:14:29.082Z,8.90
2019-03-13T01:15:00.489Z,10.55
2019-03-13T01:15:31.690Z,9.20
2019-03-13T01:16:02.891Z,9.65
2019-03-13T01:16:34.093Z,9.15
2019-03-13T01:17:05.294Z,9.13
2019-03-13T01:17:38.785Z,10.13
2019-03-13T01:18:09.407Z,10.15
2019-03-13T01:18:40.704Z,9.18
2019-03-13T01:19:11.904Z,9.68
2019-03-13T01:19:43.107Z,9.40
2019-03-13T01:20:14.302Z,9.15
2019-03-13T01:20:45.508Z,10.00
2019-03-13T01:21:16.725Z,10.60
2019-03-13T01:21:47.908Z,9.48
2019-03-13T01:22:19.163Z,10.28
2019-03-13T01:22:50.370Z,10.63
2019-03-13T01:23:21.567Z,11.20
2019-03-13T01:23:52.767Z,10.00
2019-03-13T01:24:23.960Z,10.32
2019-03-13T01:24:55.152Z,9.78
2019-03-13T01:25:26.340Z,9.95
2019-03-13T01:25:57.547Z,10.38
2019-03-13T01:26:28.815Z,10.40
2019-03-13T01:27:00.002Z,10.38
2019-03-13T01:27:31.202Z,10.95
2019-03-13T01:28:02.400Z,10.53
2019-03-13T01:28:33.608Z,10.28
2019-03-13T01:29:04.882Z,10.82
2019-03-13T01:29:36.527Z,11.12
2019-03-13T01:30:07.733Z,11.12
2019-03-13T01:30:38.945Z,9.83
2019-03-13T01:31:10.187Z,11.20
2019-03-13T01:31:41.399Z,11.35
2019-03-13T01:32:12.604Z,10.70
2019-03-13T01:32:43.818Z,10.85
2019-03-13T01:33:15.013Z,11.28
2019-03-13T01:33:46.255Z,11.73
2019-03-13T01:34:17.480Z,10.60
2019-03-13T01:34:48.684Z,11.00
2019-03-13T01:35:19.907Z,10.98
2019-03-13T01:35:51.108Z,11.57
2019-03-13T01:36:22.311Z,11.15
2019-03-13T01:36:53.546Z,10.58
2019-03-13T01:37:24.748Z,11.50
2019-03-13T01:37:58.207Z,10.78
2019-03-13T01:38:29.412Z,10.98
2019-03-13T01:39:00.624Z,10.55
2019-03-13T01:39:31.826Z,10.80
2019-03-13T01:40:03.024Z,10.60
2019-03-13T01:40:34.217Z,10.85
2019-03-13T01:41:05.418Z,10.93
2019-03-13T01:41:36.611Z,11.03
2019-03-13T01:42:07.815Z,10.70
2019-03-13T01:42:39.060Z,11.22
2019-03-13T01:43:10.296Z,10.63
2019-03-13T01:43:41.512Z,9.70
2019-03-13T01:44:12.730Z,10.60
2019-03-13T01:44:43.984Z,9.98
2019-03-13T01:45:15.163Z,10.65
2019-03-13T01:45:46.363Z,10.08
2019-03-13T01:46:17.568Z,10.32
2019-03-13T01:46:48.777Z,9.80
2019-03-13T01:47:20.025Z,9.73
2019-03-13T01:47:51.280Z,10.23
2019-03-13T01:48:22.479Z,10.28
2019-03-13T01:48:53.672Z,9.10
2019-03-13T01:49:24.874Z,10.23
2019-03-13T01:49:56.067Z,9.98
2019-03-13T01:50:27.266Z,9.30
2019-03-13T01:50:58.463Z,10.32
2019-03-13T01:51:29.673Z,10.20
2019-03-13T01:52:00.875Z,9.25
2019-03-13T01:52:32.409Z,10.25
2019-03-13T01:53:03.682Z,9.73
2019-03-13T01:53:34.892Z,9.88
2019-03-13T01:54:06.107Z,9.80
2019-03-13T01:54:37.314Z,9.23
2019-03-13T01:55:08.555Z,9.83
2019-03-13T01:55:39.764Z,9.60
2019-03-13T01:56:10.971Z,10.10
2019-03-13T01:56:42.184Z,10.08
2019-03-13T01:57:13.452Z,10.82
2019-03-13T01:57:44.654Z,9.73
2019-03-13T01:58:15.864Z,10.13
2019-03-13T01:58:47.056Z,9.90
2019-03-13T01:59:18.266Z,10.45
2019-03-13T01:59:49.470Z,10.20
2019-03-13T02:00:20.684Z,10.00
2019-03-13T02:00:51.870Z,11.28
2019-03-13T02:01:23.124Z,9.90
2019-03-13T02:01:54.339Z,10.40
2019-03-13T02:02:25.545Z,10.10
2019-03-13T02:02:56.812Z,11.30
2019-03-13T02:03:28.027Z,10.82
2019-03-13T02:03:59.228Z,10.98
2019-03-13T02:04:30.438Z,10.80
2019-03-13T02:05:01.656Z,11.83
2019-03-13T02:05:32.849Z,11.15
2019-03-13T02:06:04.065Z,11.18
2019-03-13T02:06:35.275Z,11.90
2019-03-13T02:07:06.489Z,12.30
2019-03-13T02:07:37.685Z,13.28
2019-03-13T02:08:08.898Z,14.50
2019-03-13T02:08:40.097Z,12.58
2019-03-13T02:09:11.303Z,11.45
2019-03-13T02:09:42.517Z,12.03
2019-03-13T02:10:13.758Z,12.13
2019-03-13T02:10:45.011Z,13.93
2019-03-13T02:11:16.215Z,12.75
2019-03-13T02:11:47.430Z,13.55
2019-03-13T02:12:18.643Z,13.18
2019-03-13T02:12:49.844Z,13.58
2019-03-13T02:13:21.050Z,14.35
2019-03-13T02:13:52.303Z,14.65
2019-03-13T02:14:23.547Z,12.65
2019-03-13T02:14:54.747Z,12.37
2019-03-13T02:15:25.950Z,12.15
2019-03-13T02:15:57.153Z,12.13
2019-03-13T02:16:28.347Z,12.15
2019-03-13T02:16:59.555Z,13.25
2019-03-13T02:17:30.822Z,13.75
2019-03-13T02:18:02.025Z,13.45
2019-03-13T02:18:33.218Z,14.63
2019-03-13T02:19:04.414Z,13.25
2019-03-13T02:19:35.614Z,13.40
2019-03-13T02:20:06.812Z,13.68
2019-03-13T02:20:38.027Z,12.43
2019-03-13T02:21:09.228Z,15.10
2019-03-13T02:21:40.424Z,14.68
2019-03-13T02:22:11.636Z,13.88
2019-03-13T02:22:42.872Z,14.40
2019-03-13T02:23:14.070Z,13.22
2019-03-13T02:23:45.275Z,15.38
2019-03-13T02:24:16.515Z,17.20
2019-03-13T02:24:47.730Z,15.63
2019-03-13T02:25:18.932Z,13.38
2019-03-13T02:25:50.145Z,16.35
2019-03-13T02:26:21.362Z,15.23
2019-03-13T02:26:52.760Z,15.70
2019-03-13T02:27:23.958Z,18.87
2019-03-13T02:27:55.174Z,16.62
2019-03-13T02:28:26.372Z,16.52
2019-03-13T02:28:57.574Z,18.50
2019-03-13T02:29:28.805Z,16.60
2019-03-13T02:30:00.021Z,20.10
2019-03-13T02:30:31.243Z,16.05
2019-03-13T02:31:02.452Z,20.92
2019-03-13T02:31:33.638Z,18.57
2019-03-13T02:32:04.846Z,18.75
2019-03-13T02:32:36.054Z,18.80
2019-03-13T02:33:07.313Z,18.90
2019-03-13T02:33:38.526Z,19.85
2019-03-13T02:34:09.728Z,17.85
2019-03-13T02:34:40.967Z,18.60
2019-03-13T02:35:12.243Z,18.90
2019-03-13T02:35:43.452Z,15.85
2019-03-13T02:36:14.650Z,18.45
2019-03-13T02:36:45.861Z,17.17
2019-03-13T02:37:17.120Z,16.12
2019-03-13T02:37:48.333Z,18.05
2019-03-13T02:38:19.534Z,15.98
2019-03-13T02:38:50.725Z,15.63
2019-03-13T02:39:21.952Z,17.67
2019-03-13T02:39:53.154Z,19.80
2019-03-13T02:40:24.373Z,16.60
2019-03-13T02:40:55.589Z,19.80
2019-03-13T02:41:26.799Z,18.05
2019-03-13T02:41:58.024Z,19.12
2019-03-13T02:42:29.302Z,22.40
2019-03-13T02:43:00.495Z,24.65
2019-03-13T02:43:31.702Z,24.40
2019-03-13T02:44:02.939Z,21.48
2019-03-13T02:44:34.213Z,18.73
2019-03-13T02:45:05.470Z,16.17
2019-03-13T02:45:36.727Z,15.80
2019-03-13T02:46:07.943Z,12.73
2019-03-13T02:46:39.125Z,14.03
2019-03-13T02:47:10.344Z,14.53
2019-03-13T02:47:41.555Z,14.05
2019-03-13T02:48:12.783Z,14.98
2019-03-13T02:48:44.008Z,13.22
2019-03-13T02:49:15.192Z,15.55
2019-03-13T02:49:46.392Z,14.23
2019-03-13T02:50:17.633Z,12.75
2019-03-13T02:50:48.843Z,12.70
2019-03-13T02:51:20.059Z,13.32
2019-03-13T02:51:51.447Z,12.30
2019-03-13T02:52:22.656Z,12.55
2019-03-13T02:52:53.847Z,12.60
2019-03-13T02:53:25.056Z,12.78
2019-03-13T02:53:56.263Z,12.58
2019-03-13T02:54:28.583Z,12.80
2019-03-13T02:54:59.770Z,14.05
2019-03-13T02:55:30.985Z,13.15
2019-03-13T02:56:02.191Z,13.35
2019-03-13T02:56:33.418Z,14.05
2019-03-13T02:57:04.603Z,13.03
2019-03-13T02:57:35.804Z,14.55
2019-03-13T02:58:07.045Z,13.75
2019-03-13T02:58:38.271Z,13.40
2019-03-13T02:59:09.456Z,13.30
2019-03-13T02:59:40.662Z,13.93
2019-03-13T03:00:11.889Z,15.28
2019-03-13T03:00:43.094Z,15.00
2019-03-13T03:01:14.292Z,14.70
2019-03-13T03:01:45.537Z,14.83
2019-03-13T03:02:16.742Z,16.80
2019-03-13T03:02:47.993Z,15.55
2019-03-13T03:03:19.220Z,16.23
2019-03-13T03:03:50.472Z,18.10
2019-03-13T03:04:21.708Z,16.55
2019-03-13T03:04:52.939Z,17.37
2019-03-13T03:05:24.149Z,14.73
2019-03-13T03:05:55.362Z,15.03
2019-03-13T03:06:26.604Z,13.40
2019-03-13T03:06:57.833Z,14.05
2019-03-13T03:07:29.026Z,15.18
2019-03-13T03:08:00.232Z,13.98
2019-03-13T03:08:31.422Z,14.73
2019-03-13T03:09:02.629Z,13.98
2019-03-13T03:09:33.866Z,13.18
2019-03-13T03:10:05.089Z,14.00
2019-03-13T03:10:36.291Z,13.55
2019-03-13T03:11:07.479Z,13.60
2019-03-13T03:11:38.733Z,13.05
2019-03-13T03:12:09.928Z,14.83
2019-03-13T03:12:41.126Z,17.85
2019-03-13T03:13:12.323Z,26.77
2019-03-13T03:13:43.539Z,22.65
2019-03-13T03:14:14.751Z,22.70
2019-03-13T03:14:46.143Z,23.73
2019-03-13T03:15:17.374Z,28.25
2019-03-13T03:15:48.580Z,28.15
2019-03-13T03:16:19.827Z,25.35
2019-03-13T03:16:51.032Z,30.35
2019-03-13T03:17:22.229Z,32.38
2019-03-13T03:17:53.472Z,34.73
2019-03-13T03:18:24.678Z,32.70
2019-03-13T03:18:55.882Z,27.30
2019-03-13T03:19:27.085Z,23.25
2019-03-13T03:19:58.306Z,29.07
2019-03-13T03:20:29.561Z,29.75
2019-03-13T03:21:00.777Z,38.35
2019-03-13T03:21:31.955Z,39.18
2019-03-13T03:22:03.161Z,38.23
2019-03-13T03:22:34.391Z,35.70
2019-03-13T03:23:05.688Z,34.90
2019-03-13T03:23:36.882Z,33.25
2019-03-13T03:24:08.086Z,28.12
2019-03-13T03:24:39.327Z,28.17
2019-03-13T03:25:10.528Z,27.13
2019-03-13T03:25:41.732Z,29.77
2019-03-13T03:26:12.959Z,25.62
2019-03-13T03:26:44.139Z,23.47
2019-03-13T03:27:15.351Z,21.27
2019-03-13T03:27:46.574Z,22.32
2019-03-13T03:28:17.824Z,21.57
2019-03-13T03:28:49.023Z,22.77
2019-03-13T03:29:20.307Z,21.65
2019-03-13T03:29:51.519Z,21.15
2019-03-13T03:30:23.021Z,24.35
2019-03-13T03:30:54.402Z,19.95
2019-03-13T03:31:25.624Z,19.35
2019-03-13T03:31:56.842Z,21.85
2019-03-13T03:32:28.019Z,17.15
2019-03-13T03:32:59.237Z,19.30
2019-03-13T03:33:30.449Z,16.82
2019-03-13T03:34:01.678Z,14.53
2019-03-13T03:34:32.883Z,15.40
2019-03-13T03:35:04.089Z,16.35
2019-03-13T03:35:35.312Z,15.95
2019-03-13T03:36:06.548Z,17.12
2019-03-13T03:36:37.769Z,15.72
2019-03-13T03:37:08.963Z,17.07
2019-03-13T03:37:40.196Z,16.37
2019-03-13T03:38:11.412Z,16.90
2019-03-13T03:38:42.617Z,15.63
2019-03-13T03:39:13.855Z,17.62
2019-03-13T03:39:45.058Z,18.80
2019-03-13T03:40:21.331Z,16.62
2019-03-13T03:40:49.393Z,17.12
2019-03-13T03:41:20.598Z,17.85
2019-03-13T03:41:51.796Z,18.20
2019-03-13T03:42:22.997Z,18.07
2019-03-13T03:42:54.261Z,19.80
2019-03-13T03:43:39.344Z,21.40
2019-03-13T03:43:58.444Z,21.27
2019-03-13T03:44:29.700Z,21.30
2019-03-13T03:45:00.867Z,21.75
2019-03-13T03:45:32.091Z,18.15
2019-03-13T03:46:03.307Z,19.27
2019-03-13T03:46:34.490Z,19.85
2019-03-13T03:47:05.690Z,20.57
2019-03-13T03:47:36.909Z,22.05
2019-03-13T03:48:08.129Z,23.45
2019-03-13T03:48:39.311Z,22.58
2019-03-13T03:49:10.513Z,23.85
2019-03-13T03:49:41.758Z,23.05
2019-03-13T03:50:12.974Z,23.67
2019-03-13T03:50:44.160Z,22.90
2019-03-13T03:51:15.355Z,23.35
2019-03-13T03:51:46.565Z,21.12
2019-03-13T03:52:17.769Z,21.05
2019-03-13T03:52:48.978Z,26.57
2019-03-13T03:53:20.230Z,26.20
2019-03-13T03:53:51.470Z,23.92
2019-03-13T03:54:22.667Z,23.05
2019-03-13T03:54:53.865Z,23.15
2019-03-13T03:55:25.170Z,23.07
2019-03-13T03:55:56.381Z,21.25
2019-03-13T03:56:27.585Z,21.97
2019-03-13T03:56:58.788Z,23.00
2019-03-13T03:57:30.058Z,22.52
2019-03-13T03:58:01.286Z,22.50
2019-03-13T03:58:32.546Z,21.90
2019-03-13T03:59:03.744Z,22.00
2019-03-13T03:59:34.945Z,21.02
2019-03-13T04:00:06.169Z,19.92
2019-03-13T04:00:37.375Z,21.65
2019-03-13T04:01:08.572Z,21.17
2019-03-13T04:01:39.779Z,19.32
2019-03-13T04:02:10.989Z,19.92
2019-03-13T04:02:42.272Z,21.48
2019-03-13T04:03:13.486Z,21.45
2019-03-13T04:03:44.714Z,21.02
2019-03-13T04:04:15.926Z,20.08
2019-03-13T04:04:47.226Z,19.80
2019-03-13T04:05:18.531Z,20.97
2019-03-13T04:05:49.725Z,19.05
2019-03-13T04:06:20.921Z,19.62
2019-03-13T04:06:52.221Z,21.02
2019-03-13T04:07:23.418Z,20.85
2019-03-13T04:07:54.649Z,19.82
2019-03-13T04:08:25.856Z,20.92
2019-03-13T04:08:57.068Z,22.13
2019-03-13T04:09:28.304Z,19.57
2019-03-13T04:09:59.503Z,18.17
2019-03-13T04:10:30.772Z,18.32
2019-03-13T04:11:01.990Z,18.40
2019-03-13T04:11:33.196Z,17.45
2019-03-13T04:12:04.422Z,15.58
2019-03-13T04:12:35.631Z,17.02
2019-03-13T04:13:06.833Z,16.80
2019-03-13T04:13:38.047Z,17.70
2019-03-13T04:14:09.262Z,18.20
2019-03-13T04:14:40.467Z,19.40
2019-03-13T04:15:11.679Z,17.50
2019-03-13T04:15:43.029Z,20.37
2019-03-13T04:16:14.241Z,18.95
2019-03-13T04:16:45.445Z,17.98
2019-03-13T04:17:16.641Z,17.73
2019-03-13T04:17:47.854Z,17.65
2019-03-13T04:18:19.054Z,20.60
2019-03-13T04:18:50.251Z,17.27
2019-03-13T04:19:21.533Z,15.45
2019-03-13T04:19:52.741Z,16.20
2019-03-13T04:20:23.940Z,17.10
2019-03-13T04:20:55.177Z,15.50
2019-03-13T04:21:26.403Z,16.85
2019-03-13T04:21:57.615Z,15.68
2019-03-13T04:22:28.833Z,15.40
2019-03-13T04:23:00.043Z,18.85
2019-03-13T04:23:31.260Z,17.95
2019-03-13T04:24:02.455Z,17.77
2019-03-13T04:24:33.698Z,16.42
2019-03-13T04:25:04.917Z,17.42
2019-03-13T04:25:36.104Z,16.07
2019-03-13T04:26:07.307Z,14.45
2019-03-13T04:26:38.925Z,15.75
2019-03-13T04:27:10.141Z,16.12
2019-03-13T04:27:42.330Z,15.30
2019-03-13T04:28:13.603Z,16.00
2019-03-13T04:28:44.807Z,16.55
2019-03-13T04:29:16.009Z,17.90
2019-03-13T04:29:47.240Z,16.65
2019-03-13T04:30:18.461Z,17.07
2019-03-13T04:30:49.710Z,16.67
2019-03-13T04:31:20.920Z,14.53
2019-03-13T04:31:52.128Z,16.48
2019-03-13T04:32:23.343Z,15.23
2019-03-13T04:32:54.531Z,15.48
2019-03-13T04:33:28.208Z,15.43
2019-03-13T04:33:58.683Z,15.32
2019-03-13T04:34:29.884Z,14.87
2019-03-13T04:35:01.086Z,13.98
2019-03-13T04:35:32.277Z,13.90
2019-03-13T04:36:03.629Z,15.10
2019-03-13T04:36:34.831Z,12.82
2019-03-13T04:37:06.057Z,16.42
2019-03-13T04:37:37.253Z,13.35
2019-03-13T04:38:08.454Z,14.00
2019-03-13T04:38:39.649Z,15.98
2019-03-13T04:39:10.854Z,14.23
2019-03-13T04:39:42.059Z,12.55
2019-03-13T04:40:13.273Z,13.22
2019-03-13T04:40:44.485Z,16.32
2019-03-13T04:41:15.720Z,14.15
2019-03-13T04:41:46.917Z,14.70
2019-03-13T04:42:18.124Z,16.12
2019-03-13T04:42:49.443Z,14.87
2019-03-13T04:43:20.646Z,15.53
2019-03-13T04:43:51.859Z,14.83
2019-03-13T04:44:23.142Z,14.58
2019-03-13T04:44:54.367Z,15.75
2019-03-13T04:45:25.572Z,16.27
2019-03-13T04:46:02.889Z,15.93
2019-03-13T04:46:34.056Z,16.42
2019-03-13T04:47:05.227Z,16.20
2019-03-13T04:47:36.416Z,19.37
2019-03-13T04:48:07.553Z,15.95
2019-03-13T04:48:38.780Z,17.30
2019-03-13T04:49:10.054Z,16.82
2019-03-13T04:49:41.222Z,17.60
2019-03-13T04:50:12.373Z,19.92
2019-03-13T04:50:43.547Z,17.55
2019-03-13T04:51:14.713Z,17.52
2019-03-13T04:51:45.875Z,17.45
2019-03-13T04:52:17.032Z,20.25
2019-03-13T04:52:48.192Z,19.12
2019-03-13T04:53:19.361Z,16.85
2019-03-13T04:53:50.589Z,18.98
2019-03-13T04:54:21.760Z,19.48
2019-03-13T04:54:52.919Z,18.85
2019-03-13T04:55:24.072Z,18.80
2019-03-13T04:55:55.225Z,20.60
2019-03-13T04:56:26.403Z,19.50
2019-03-13T04:56:57.575Z,19.98
2019-03-13T04:57:28.742Z,21.00
2019-03-13T04:57:59.946Z,21.02
2019-03-13T04:58:31.103Z,20.90
2019-03-13T04:59:02.263Z,20.45
2019-03-13T04:59:33.427Z,21.15
2019-03-13T05:00:04.603Z,23.27
2019-03-13T05:00:35.761Z,21.52
2019-03-13T05:01:06.928Z,21.77
2019-03-13T05:01:38.101Z,20.68
2019-03-13T05:02:09.275Z,23.22
2019-03-13T05:02:40.448Z,23.80
2019-03-13T05:03:11.667Z,23.90
2019-03-13T05:03:42.828Z,23.75
2019-03-13T05:04:13.991Z,22.75
2019-03-13T05:04:45.147Z,25.77
2019-03-13T05:05:16.305Z,23.22
2019-03-13T05:05:47.484Z,25.65
2019-03-13T05:06:18.656Z,24.00
2019-03-13T05:06:49.871Z,22.77
2019-03-13T05:07:21.044Z,23.27
2019-03-13T05:07:52.218Z,26.00
2019-03-13T05:08:23.377Z,22.20
2019-03-13T05:08:54.547Z,24.45
2019-03-13T05:09:25.709Z,24.82
2019-03-13T05:09:56.882Z,22.42
2019-03-13T05:10:28.078Z,24.87
2019-03-13T05:10:59.270Z,24.20
2019-03-13T05:11:30.446Z,23.73
2019-03-13T05:12:01.609Z,25.05
2019-03-13T05:12:32.769Z,24.87
2019-03-13T05:13:04.085Z,25.82
2019-03-13T05:13:35.306Z,25.12
2019-03-13T05:14:06.458Z,20.40
2019-03-13T05:14:37.637Z,22.00
2019-03-13T05:15:08.823Z,23.47
2019-03-13T05:15:39.992Z,23.20
2019-03-13T05:16:11.155Z,22.42
2019-03-13T05:16:42.328Z,22.05
2019-03-13T05:17:13.496Z,23.00
2019-03-13T05:17:44.676Z,24.25
2019-03-13T05:18:15.858Z,21.68
2019-03-13T05:18:47.023Z,23.75
2019-03-13T05:19:18.193Z,22.50
2019-03-13T05:19:49.347Z,22.45
2019-03-13T05:20:20.513Z,22.55
2019-03-13T05:20:51.686Z,22.13
2019-03-13T05:21:22.855Z,21.55
2019-03-13T05:21:54.010Z,22.27
2019-03-13T05:22:25.160Z,23.40
2019-03-13T05:22:56.343Z,21.05
2019-03-13T05:23:27.562Z,23.30
2019-03-13T05:23:58.714Z,23.73
2019-03-13T05:24:29.862Z,25.70
2019-03-13T05:25:01.017Z,24.92
2019-03-13T05:25:32.187Z,24.00
2019-03-13T05:26:03.349Z,21.57
2019-03-13T05:26:34.509Z,21.82
2019-03-13T05:27:05.669Z,22.82
2019-03-13T05:27:36.837Z,24.87
2019-03-13T05:28:07.995Z,19.92
2019-03-13T05:28:39.197Z,23.40
2019-03-13T05:29:10.375Z,20.95
2019-03-13T05:29:41.538Z,22.10
2019-03-13T05:30:12.700Z,23.50
2019-03-13T05:30:43.870Z,23.73
2019-03-13T05:31:15.037Z,22.15
2019-03-13T05:31:46.793Z,24.10
2019-03-13T05:32:17.944Z,22.27
2019-03-13T05:32:49.169Z,21.60
2019-03-13T05:33:20.331Z,23.90
2019-03-13T05:33:51.485Z,23.92
2019-03-13T05:34:22.649Z,21.55
2019-03-13T05:34:53.844Z,21.73
2019-03-13T05:35:25.025Z,24.47
2019-03-13T05:35:56.203Z,23.77
2019-03-13T05:36:27.332Z,22.70
2019-03-13T05:36:58.527Z,21.50
2019-03-13T05:37:29.677Z,21.37
2019-03-13T05:38:00.862Z,18.23
2019-03-13T05:38:32.017Z,20.60
2019-03-13T05:39:03.194Z,19.45
2019-03-13T05:39:34.356Z,17.73
2019-03-13T05:40:05.548Z,18.90
2019-03-13T05:40:37.093Z,19.25
2019-03-13T05:41:08.296Z,17.55
2019-03-13T05:41:39.450Z,21.40
2019-03-13T05:42:10.612Z,19.07
2019-03-13T05:42:41.796Z,21.37
2019-03-13T05:43:12.993Z,17.42
2019-03-13T05:43:44.177Z,18.27
2019-03-13T05:44:15.335Z,18.50
2019-03-13T05:44:46.486Z,16.82
2019-03-13T05:45:17.670Z,19.25
2019-03-13T05:45:48.866Z,18.40
2019-03-13T05:46:19.988Z,19.10
2019-03-13T05:46:51.179Z,16.60
2019-03-13T05:47:22.352Z,17.77
2019-03-13T05:47:53.512Z,19.82
2019-03-13T05:48:24.685Z,19.35
2019-03-13T05:48:55.865Z,19.87
2019-03-13T05:49:27.024Z,16.50
2019-03-13T05:49:58.191Z,16.95
2019-03-13T05:50:31.603Z,16.77
2019-03-13T05:51:02.244Z,17.42
2019-03-13T05:51:33.407Z,17.35
2019-03-13T05:52:04.610Z,16.40
2019-03-13T05:52:35.776Z,16.52
2019-03-13T05:53:06.977Z,15.95
2019-03-13T05:53:38.130Z,15.50
2019-03-13T05:54:09.288Z,15.35
2019-03-13T05:54:40.452Z,14.80
2019-03-13T05:55:11.619Z,14.63
2019-03-13T05:55:42.819Z,13.80
2019-03-13T05:56:14.067Z,14.78
2019-03-13T05:56:45.202Z,14.58
2019-03-13T05:57:16.356Z,16.20
2019-03-13T05:57:47.514Z,13.83
2019-03-13T05:58:18.719Z,13.53
2019-03-13T05:58:49.874Z,15.48
2019-03-13T05:59:21.027Z,14.15
2019-03-13T05:59:52.198Z,13.88
2019-03-13T06:00:23.357Z,16.40
2019-03-13T06:00:54.553Z,12.98
2019-03-13T06:01:25.767Z,13.62
2019-03-13T06:01:56.924Z,10.78
2019-03-13T06:02:28.088Z,11.43
2019-03-13T06:02:59.242Z,11.83
2019-03-13T06:03:30.476Z,14.73
2019-03-13T06:04:01.694Z,12.60
2019-03-13T06:04:32.855Z,13.40
2019-03-13T06:05:04.020Z,15.28
2019-03-13T06:05:35.184Z,12.25
2019-03-13T06:06:06.334Z,14.65
2019-03-13T06:06:37.495Z,13.90
2019-03-13T06:07:08.693Z,13.30
2019-03-13T06:07:39.853Z,15.35
2019-03-13T06:08:11.012Z,15.70
2019-03-13T06:08:42.235Z,16.45
2019-03-13T06:09:13.403Z,15.98
2019-03-13T06:09:44.590Z,14.30
2019-03-13T06:10:15.772Z,15.95
2019-03-13T06:10:46.946Z,17.98
2019-03-13T06:11:18.175Z,17.48
2019-03-13T06:11:49.332Z,19.45
2019-03-13T06:12:20.498Z,18.07
2019-03-13T06:12:51.694Z,18.00
2019-03-13T06:13:22.934Z,20.62
2019-03-13T06:13:54.087Z,20.17
2019-03-13T06:14:25.267Z,19.77
2019-03-13T06:14:56.424Z,21.65
2019-03-13T06:15:27.568Z,20.30
2019-03-13T06:15:58.738Z,22.10
2019-03-13T06:16:29.893Z,21.62
2019-03-13T06:17:01.061Z,19.62
2019-03-13T06:17:32.234Z,21.23
2019-03-13T06:18:03.433Z,23.25
2019-03-13T06:18:34.594Z,19.57
2019-03-13T06:19:05.743Z,21.37
2019-03-13T06:19:36.963Z,23.00
2019-03-13T06:20:10.606Z,22.42
2019-03-13T06:20:41.012Z,22.75
2019-03-13T06:21:12.178Z,21.55
2019-03-13T06:21:43.357Z,22.42
2019-03-13T06:22:14.509Z,19.42
2019-03-13T06:22:45.672Z,20.20
2019-03-13T06:23:16.889Z,19.05
2019-03-13T06:23:48.238Z,20.40
2019-03-13T06:24:19.438Z,18.75
2019-03-13T06:24:50.597Z,17.90
2019-03-13T06:25:21.769Z,16.80
2019-03-13T06:25:52.921Z,17.67
2019-03-13T06:26:24.077Z,16.82
2019-03-13T06:26:55.244Z,18.73
2019-03-13T06:27:26.397Z,18.05
2019-03-13T06:27:57.549Z,15.18
2019-03-13T06:28:28.752Z,15.95
2019-03-13T06:28:59.941Z,14.73
2019-03-13T06:29:31.927Z,16.17
2019-03-13T06:30:03.222Z,16.05
2019-03-13T06:30:34.376Z,17.27
2019-03-13T06:31:05.555Z,15.93
2019-03-13T06:31:36.703Z,16.23
2019-03-13T06:32:07.862Z,16.60
2019-03-13T06:32:39.074Z,17.77
2019-03-13T06:33:10.219Z,17.57
2019-03-13T06:33:41.398Z,15.75
2019-03-13T06:34:12.552Z,16.23
2019-03-13T06:34:43.708Z,14.87
2019-03-13T06:35:14.855Z,14.87
2019-03-13T06:35:46.015Z,15.70
2019-03-13T06:36:17.185Z,12.28
2019-03-13T06:36:48.393Z,14.45
2019-03-13T06:37:19.544Z,13.10
2019-03-13T06:37:50.715Z,12.13
2019-03-13T06:38:21.894Z,12.43
2019-03-13T06:38:53.052Z,13.65
2019-03-13T06:39:24.243Z,13.50
2019-03-13T06:39:55.367Z,14.40
2019-03-13T06:40:26.535Z,14.20
2019-03-13T06:40:57.697Z,12.58
2019-03-13T06:41:28.891Z,11.33
2019-03-13T06:42:00.050Z,11.70
2019-03-13T06:42:31.231Z,11.75
2019-03-13T06:43:02.395Z,13.03
2019-03-13T06:43:33.553Z,11.85
2019-03-13T06:44:04.708Z,11.50
2019-03-13T06:44:35.878Z,14.18